sensor_id;sensor_type;location;lat;lon;timestamp;P1;durP1;ratioP1;P2;durP2;ratioP2
30617;SDS011;17384;51.214;9.202;2023-08-17T00:02:00;7.65;;;5.15;;
30617;SDS011;17384;51.214;9.202;2023-08-17T00:04:25;11.15;;;5.80;;
30617;SDS011;17384;51.214;9.202;2023-08-17T00:06:51;7.07;;;5.80;;
30617;SDS011;17384;51.214;9.202;2023-08-17T00:09:16;8.68;;;6.93;;
30617;SDS011;17384;51.214;9.202;2023-08-17T00:11:42;7.22;;;5.10;;
30617;SDS011;17384;51.214;9.202;2023-08-17T00:14:07;5.93;;;4.93;;
30617;SDS011;17384;51.214;9.202;2023-08-17T00:16:33;6.78;;;4.10;;
30617;SDS011;17384;51.214;9.202;2023-08-17T00:18:58;9.38;;;4.35;;
30617;SDS011;17384;51.214;9.202;2023-08-17T00:21:24;8.55;;;5.75;;
30617;SDS011;17384;51.214;9.202;2023-08-17T00:23:49;9.90;;;7.53;;
30617;SDS011;17384;51.214;9.202;2023-08-17T00:26:15;8.93;;;6.55;;
30617;SDS011;17384;51.214;9.202;2023-08-17T00:28:41;10.30;;;6.55;;
30617;SDS011;17384;51.214;9.202;2023-08-17T00:31:06;9.82;;;7.07;;
30617;SDS011;17384;51.214;9.202;2023-08-17T00:33:31;9.13;;;7.00;;
30617;SDS011;17384;51.214;9.202;2023-08-17T00:35:57;7.15;;;5.43;;
30617;SDS011;17384;51.214;9.202;2023-08-17T00:38:22;5.47;;;4.90;;
30617;SDS011;17384;51.214;9.202;2023-08-17T00:40:48;6.65;;;4.65;;
30617;SDS011;17384;51.214;9.202;2023-08-17T00:43:13;5.95;;;4.07;;
30617;SDS011;17384;51.214;9.202;2023-08-17T00:45:39;4.40;;;3.97;;
30617;SDS011;17384;51.214;9.202;2023-08-17T00:48:06;4.35;;;3.60;;
30617;SDS011;17384;51.214;9.202;2023-08-17T00:50:33;4.25;;;3.78;;
30617;SDS011;17384;51.214;9.202;2023-08-17T00:53:00;16.17;;;4.38;;
30617;SDS011;17384;51.214;9.202;2023-08-17T00:55:26;6.88;;;5.70;;
30617;SDS011;17384;51.214;9.202;2023-08-17T00:57:52;8.32;;;5.80;;
30617;SDS011;17384;51.214;9.202;2023-08-17T01:00:18;10.27;;;5.55;;
30617;SDS011;17384;51.214;9.202;2023-08-17T01:02:45;14.25;;;5.72;;
30617;SDS011;17384;51.214;9.202;2023-08-17T01:05:12;6.07;;;5.47;;
30617;SDS011;17384;51.214;9.202;2023-08-17T01:07:38;4.95;;;4.38;;
30617;SDS011;17384;51.214;9.202;2023-08-17T01:10:04;8.77;;;4.30;;
30617;SDS011;17384;51.214;9.202;2023-08-17T01:12:43;6.47;;;5.05;;
30617;SDS011;17384;51.214;9.202;2023-08-17T01:15:33;7.05;;;4.68;;
30617;SDS011;17384;51.214;9.202;2023-08-17T01:18:09;6.85;;;5.35;;
30617;SDS011;17384;51.214;9.202;2023-08-17T01:20:44;6.03;;;4.60;;
30617;SDS011;17384;51.214;9.202;2023-08-17T01:23:11;6.72;;;4.85;;
30617;SDS011;17384;51.214;9.202;2023-08-17T01:25:37;5.28;;;4.72;;
30617;SDS011;17384;51.214;9.202;2023-08-17T01:28:03;5.03;;;4.53;;
30617;SDS011;17384;51.214;9.202;2023-08-17T01:30:30;6.47;;;4.40;;
30617;SDS011;17384;51.214;9.202;2023-08-17T01:33:14;6.13;;;4.72;;
30617;SDS011;17384;51.214;9.202;2023-08-17T01:35:55;5.60;;;4.45;;
30617;SDS011;17384;51.214;9.202;2023-08-17T01:38:43;4.63;;;4.07;;
30617;SDS011;17384;51.214;9.202;2023-08-17T01:41:10;7.50;;;4.47;;
30617;SDS011;17384;51.214;9.202;2023-08-17T01:43:43;6.28;;;4.90;;
30617;SDS011;17384;51.214;9.202;2023-08-17T01:46:14;7.05;;;4.63;;
30617;SDS011;17384;51.214;9.202;2023-08-17T01:48:43;5.47;;;4.93;;
30617;SDS011;17384;51.214;9.202;2023-08-17T01:51:10;5.00;;;4.50;;
30617;SDS011;17384;51.214;9.202;2023-08-17T01:53:36;8.20;;;5.07;;
30617;SDS011;17384;51.214;9.202;2023-08-17T01:56:02;5.60;;;5.05;;
30617;SDS011;17384;51.214;9.202;2023-08-17T01:58:27;6.55;;;5.03;;
30617;SDS011;17384;51.214;9.202;2023-08-17T02:00:53;7.10;;;4.88;;
30617;SDS011;17384;51.214;9.202;2023-08-17T02:03:18;8.80;;;5.82;;
30617;SDS011;17384;51.214;9.202;2023-08-17T02:05:46;7.93;;;6.50;;
30617;SDS011;17384;51.214;9.202;2023-08-17T02:08:12;9.50;;;6.90;;
30617;SDS011;17384;51.214;9.202;2023-08-17T02:10:37;9.90;;;6.57;;
30617;SDS011;17384;51.214;9.202;2023-08-17T02:13:03;8.38;;;7.05;;
30617;SDS011;17384;51.214;9.202;2023-08-17T02:15:29;7.85;;;6.60;;
30617;SDS011;17384;51.214;9.202;2023-08-17T02:17:55;7.55;;;6.45;;
30617;SDS011;17384;51.214;9.202;2023-08-17T02:20:21;8.20;;;6.95;;
30617;SDS011;17384;51.214;9.202;2023-08-17T02:22:46;8.93;;;7.00;;
30617;SDS011;17384;51.214;9.202;2023-08-17T02:25:12;9.68;;;7.03;;
30617;SDS011;17384;51.214;9.202;2023-08-17T02:27:37;9.93;;;7.47;;
30617;SDS011;17384;51.214;9.202;2023-08-17T02:30:03;12.85;;;7.68;;
30617;SDS011;17384;51.214;9.202;2023-08-17T02:32:29;10.15;;;8.30;;
30617;SDS011;17384;51.214;9.202;2023-08-17T02:34:54;15.52;;;9.52;;
30617;SDS011;17384;51.214;9.202;2023-08-17T02:37:20;17.65;;;11.60;;
30617;SDS011;17384;51.214;9.202;2023-08-17T02:39:45;16.73;;;12.80;;
30617;SDS011;17384;51.214;9.202;2023-08-17T02:42:11;15.98;;;12.75;;
30617;SDS011;17384;51.214;9.202;2023-08-17T02:44:36;19.70;;;14.23;;
30617;SDS011;17384;51.214;9.202;2023-08-17T02:47:01;21.92;;;15.13;;
30617;SDS011;17384;51.214;9.202;2023-08-17T02:49:27;21.23;;;16.67;;
30617;SDS011;17384;51.214;9.202;2023-08-17T02:51:52;25.60;;;18.23;;
30617;SDS011;17384;51.214;9.202;2023-08-17T02:54:18;25.35;;;17.33;;
30617;SDS011;17384;51.214;9.202;2023-08-17T02:56:43;25.92;;;18.73;;
30617;SDS011;17384;51.214;9.202;2023-08-17T02:59:08;35.92;;;20.15;;
30617;SDS011;17384;51.214;9.202;2023-08-17T03:01:34;29.13;;;20.15;;
30617;SDS011;17384;51.214;9.202;2023-08-17T03:03:59;29.95;;;20.02;;
30617;SDS011;17384;51.214;9.202;2023-08-17T03:06:25;25.60;;;20.50;;
30617;SDS011;17384;51.214;9.202;2023-08-17T03:08:50;27.80;;;18.80;;
30617;SDS011;17384;51.214;9.202;2023-08-17T03:11:17;28.70;;;19.27;;
30617;SDS011;17384;51.214;9.202;2023-08-17T03:13:43;33.00;;;22.33;;
30617;SDS011;17384;51.214;9.202;2023-08-17T03:16:10;31.02;;;21.85;;
30617;SDS011;17384;51.214;9.202;2023-08-17T03:18:36;32.03;;;22.60;;
30617;SDS011;17384;51.214;9.202;2023-08-17T03:21:01;28.20;;;20.77;;
30617;SDS011;17384;51.214;9.202;2023-08-17T03:23:27;26.67;;;20.70;;
30617;SDS011;17384;51.214;9.202;2023-08-17T03:25:52;30.45;;;21.20;;
30617;SDS011;17384;51.214;9.202;2023-08-17T03:28:18;35.83;;;21.60;;
30617;SDS011;17384;51.214;9.202;2023-08-17T03:30:44;30.27;;;22.20;;
30617;SDS011;17384;51.214;9.202;2023-08-17T03:33:09;30.58;;;22.13;;
30617;SDS011;17384;51.214;9.202;2023-08-17T03:35:35;31.75;;;21.15;;
30617;SDS011;17384;51.214;9.202;2023-08-17T03:38:00;34.78;;;22.77;;
30617;SDS011;17384;51.214;9.202;2023-08-17T03:40:26;38.13;;;23.13;;
30617;SDS011;17384;51.214;9.202;2023-08-17T03:42:51;30.35;;;22.85;;
30617;SDS011;17384;51.214;9.202;2023-08-17T03:45:17;32.50;;;20.80;;
30617;SDS011;17384;51.214;9.202;2023-08-17T03:47:43;31.70;;;21.35;;
30617;SDS011;17384;51.214;9.202;2023-08-17T03:50:09;31.75;;;22.75;;
30617;SDS011;17384;51.214;9.202;2023-08-17T03:52:35;30.35;;;21.35;;
30617;SDS011;17384;51.214;9.202;2023-08-17T03:55:01;36.42;;;20.70;;
30617;SDS011;17384;51.214;9.202;2023-08-17T03:57:26;28.63;;;19.48;;
30617;SDS011;17384;51.214;9.202;2023-08-17T03:59:52;32.58;;;21.30;;
30617;SDS011;17384;51.214;9.202;2023-08-17T04:02:17;32.15;;;20.95;;
30617;SDS011;17384;51.214;9.202;2023-08-17T04:04:42;34.20;;;21.13;;
30617;SDS011;17384;51.214;9.202;2023-08-17T04:07:08;27.83;;;20.13;;
30617;SDS011;17384;51.214;9.202;2023-08-17T04:09:33;25.85;;;19.48;;
30617;SDS011;17384;51.214;9.202;2023-08-17T04:11:59;28.67;;;19.63;;
30617;SDS011;17384;51.214;9.202;2023-08-17T04:14:24;31.13;;;19.75;;
30617;SDS011;17384;51.214;9.202;2023-08-17T04:16:50;31.77;;;19.55;;
30617;SDS011;17384;51.214;9.202;2023-08-17T04:19:16;31.42;;;18.73;;
30617;SDS011;17384;51.214;9.202;2023-08-17T04:21:42;31.83;;;19.77;;
30617;SDS011;17384;51.214;9.202;2023-08-17T04:24:07;29.83;;;19.50;;
30617;SDS011;17384;51.214;9.202;2023-08-17T04:26:32;33.58;;;20.80;;
30617;SDS011;17384;51.214;9.202;2023-08-17T04:28:58;31.42;;;19.27;;
30617;SDS011;17384;51.214;9.202;2023-08-17T04:31:23;27.75;;;19.45;;
30617;SDS011;17384;51.214;9.202;2023-08-17T04:33:49;41.28;;;19.83;;
30617;SDS011;17384;51.214;9.202;2023-08-17T04:36:14;32.33;;;20.98;;
30617;SDS011;17384;51.214;9.202;2023-08-17T04:38:40;31.20;;;18.27;;
30617;SDS011;17384;51.214;9.202;2023-08-17T04:41:05;31.40;;;20.30;;
30617;SDS011;17384;51.214;9.202;2023-08-17T04:43:31;30.15;;;17.35;;
30617;SDS011;17384;51.214;9.202;2023-08-17T04:45:56;34.65;;;19.85;;
30617;SDS011;17384;51.214;9.202;2023-08-17T04:48:22;31.05;;;18.88;;
30617;SDS011;17384;51.214;9.202;2023-08-17T04:50:47;37.47;;;21.55;;
30617;SDS011;17384;51.214;9.202;2023-08-17T04:53:13;38.55;;;21.15;;
30617;SDS011;17384;51.214;9.202;2023-08-17T04:55:39;31.92;;;20.35;;
30617;SDS011;17384;51.214;9.202;2023-08-17T04:58:04;38.20;;;22.10;;
30617;SDS011;17384;51.214;9.202;2023-08-17T05:00:30;35.78;;;21.58;;
30617;SDS011;17384;51.214;9.202;2023-08-17T05:02:55;45.08;;;23.48;;
30617;SDS011;17384;51.214;9.202;2023-08-17T05:05:21;34.92;;;21.05;;
30617;SDS011;17384;51.214;9.202;2023-08-17T05:07:47;46.75;;;23.33;;
30617;SDS011;17384;51.214;9.202;2023-08-17T05:10:13;38.25;;;22.13;;
30617;SDS011;17384;51.214;9.202;2023-08-17T05:12:39;43.60;;;24.13;;
30617;SDS011;17384;51.214;9.202;2023-08-17T05:15:04;48.05;;;25.90;;
30617;SDS011;17384;51.214;9.202;2023-08-17T05:17:30;40.15;;;23.90;;
30617;SDS011;17384;51.214;9.202;2023-08-17T05:19:55;35.22;;;22.45;;
30617;SDS011;17384;51.214;9.202;2023-08-17T05:22:21;43.78;;;24.25;;
30617;SDS011;17384;51.214;9.202;2023-08-17T05:24:47;45.47;;;24.90;;
30617;SDS011;17384;51.214;9.202;2023-08-17T05:27:12;36.60;;;20.67;;
30617;SDS011;17384;51.214;9.202;2023-08-17T05:29:38;40.25;;;22.38;;
30617;SDS011;17384;51.214;9.202;2023-08-17T05:32:03;38.13;;;21.25;;
30617;SDS011;17384;51.214;9.202;2023-08-17T05:34:29;38.08;;;22.33;;
30617;SDS011;17384;51.214;9.202;2023-08-17T05:36:55;51.17;;;25.98;;
30617;SDS011;17384;51.214;9.202;2023-08-17T05:39:20;39.35;;;22.40;;
30617;SDS011;17384;51.214;9.202;2023-08-17T05:41:46;36.05;;;21.92;;
30617;SDS011;17384;51.214;9.202;2023-08-17T05:44:11;34.55;;;21.40;;
30617;SDS011;17384;51.214;9.202;2023-08-17T05:46:38;34.53;;;20.17;;
30617;SDS011;17384;51.214;9.202;2023-08-17T05:49:03;37.35;;;21.13;;
30617;SDS011;17384;51.214;9.202;2023-08-17T05:51:29;38.83;;;22.85;;
30617;SDS011;17384;51.214;9.202;2023-08-17T05:53:55;36.00;;;20.67;;
30617;SDS011;17384;51.214;9.202;2023-08-17T05:56:21;41.47;;;24.80;;
30617;SDS011;17384;51.214;9.202;2023-08-17T05:58:46;36.88;;;21.25;;
30617;SDS011;17384;51.214;9.202;2023-08-17T06:01:11;35.00;;;21.92;;
30617;SDS011;17384;51.214;9.202;2023-08-17T06:03:37;36.50;;;20.58;;
30617;SDS011;17384;51.214;9.202;2023-08-17T06:06:03;35.30;;;20.35;;
30617;SDS011;17384;51.214;9.202;2023-08-17T06:08:30;41.15;;;22.67;;
30617;SDS011;17384;51.214;9.202;2023-08-17T06:10:56;39.35;;;24.10;;
30617;SDS011;17384;51.214;9.202;2023-08-17T06:13:21;33.40;;;19.98;;
30617;SDS011;17384;51.214;9.202;2023-08-17T06:15:47;31.70;;;19.45;;
30617;SDS011;17384;51.214;9.202;2023-08-17T06:18:12;38.05;;;21.25;;
30617;SDS011;17384;51.214;9.202;2023-08-17T06:20:38;34.65;;;19.98;;
30617;SDS011;17384;51.214;9.202;2023-08-17T06:23:03;35.60;;;20.67;;
30617;SDS011;17384;51.214;9.202;2023-08-17T06:25:29;38.65;;;22.88;;
30617;SDS011;17384;51.214;9.202;2023-08-17T06:27:54;33.47;;;20.42;;
30617;SDS011;17384;51.214;9.202;2023-08-17T06:30:20;39.45;;;20.50;;
30617;SDS011;17384;51.214;9.202;2023-08-17T06:32:46;33.65;;;20.75;;
30617;SDS011;17384;51.214;9.202;2023-08-17T06:35:12;31.48;;;20.13;;
30617;SDS011;17384;51.214;9.202;2023-08-17T06:37:37;38.88;;;21.20;;
30617;SDS011;17384;51.214;9.202;2023-08-17T06:40:03;34.63;;;20.80;;
30617;SDS011;17384;51.214;9.202;2023-08-17T06:42:30;33.00;;;20.20;;
30617;SDS011;17384;51.214;9.202;2023-08-17T06:44:56;34.30;;;22.17;;
30617;SDS011;17384;51.214;9.202;2023-08-17T06:47:22;35.63;;;20.55;;
30617;SDS011;17384;51.214;9.202;2023-08-17T06:49:48;35.70;;;21.35;;
30617;SDS011;17384;51.214;9.202;2023-08-17T06:52:13;43.10;;;24.35;;
30617;SDS011;17384;51.214;9.202;2023-08-17T06:54:38;32.50;;;19.92;;
30617;SDS011;17384;51.214;9.202;2023-08-17T06:57:05;36.28;;;21.20;;
30617;SDS011;17384;51.214;9.202;2023-08-17T06:59:30;37.50;;;22.58;;
30617;SDS011;17384;51.214;9.202;2023-08-17T07:01:58;33.45;;;20.83;;
30617;SDS011;17384;51.214;9.202;2023-08-17T07:04:23;34.97;;;20.98;;
30617;SDS011;17384;51.214;9.202;2023-08-17T07:06:49;39.13;;;22.63;;
30617;SDS011;17384;51.214;9.202;2023-08-17T07:09:14;41.15;;;22.55;;
30617;SDS011;17384;51.214;9.202;2023-08-17T07:11:40;44.75;;;25.08;;
30617;SDS011;17384;51.214;9.202;2023-08-17T07:14:05;46.88;;;23.38;;
30617;SDS011;17384;51.214;9.202;2023-08-17T07:16:31;38.45;;;23.00;;
30617;SDS011;17384;51.214;9.202;2023-08-17T07:18:57;43.30;;;23.25;;
30617;SDS011;17384;51.214;9.202;2023-08-17T07:21:23;44.13;;;22.45;;
30617;SDS011;17384;51.214;9.202;2023-08-17T07:23:49;38.35;;;21.77;;
30617;SDS011;17384;51.214;9.202;2023-08-17T07:26:16;34.53;;;20.13;;
30617;SDS011;17384;51.214;9.202;2023-08-17T07:28:43;33.50;;;18.45;;
30617;SDS011;17384;51.214;9.202;2023-08-17T07:31:09;29.92;;;17.65;;
30617;SDS011;17384;51.214;9.202;2023-08-17T07:33:34;36.28;;;20.63;;
30617;SDS011;17384;51.214;9.202;2023-08-17T07:36:00;29.65;;;17.10;;
30617;SDS011;17384;51.214;9.202;2023-08-17T07:38:25;27.60;;;16.50;;
30617;SDS011;17384;51.214;9.202;2023-08-17T07:40:51;29.25;;;17.42;;
30617;SDS011;17384;51.214;9.202;2023-08-17T07:43:16;33.22;;;20.60;;
30617;SDS011;17384;51.214;9.202;2023-08-17T07:45:42;30.45;;;17.17;;
30617;SDS011;17384;51.214;9.202;2023-08-17T07:48:07;28.30;;;15.52;;
30617;SDS011;17384;51.214;9.202;2023-08-17T07:50:33;32.92;;;19.27;;
30617;SDS011;17384;51.214;9.202;2023-08-17T07:52:59;32.28;;;19.40;;
30617;SDS011;17384;51.214;9.202;2023-08-17T07:55:25;34.17;;;19.52;;
30617;SDS011;17384;51.214;9.202;2023-08-17T07:57:51;31.45;;;18.23;;
30617;SDS011;17384;51.214;9.202;2023-08-17T08:00:16;37.78;;;21.40;;
30617;SDS011;17384;51.214;9.202;2023-08-17T08:02:42;32.22;;;18.45;;
30617;SDS011;17384;51.214;9.202;2023-08-17T08:05:12;29.15;;;17.73;;
30617;SDS011;17384;51.214;9.202;2023-08-17T08:07:40;32.53;;;20.27;;
30617;SDS011;17384;51.214;9.202;2023-08-17T08:10:07;30.33;;;19.38;;
30617;SDS011;17384;51.214;9.202;2023-08-17T08:12:33;36.00;;;21.48;;
30617;SDS011;17384;51.214;9.202;2023-08-17T08:14:58;35.28;;;20.33;;
30617;SDS011;17384;51.214;9.202;2023-08-17T08:17:24;28.42;;;18.88;;
30617;SDS011;17384;51.214;9.202;2023-08-17T08:19:49;29.23;;;17.88;;
30617;SDS011;17384;51.214;9.202;2023-08-17T08:22:16;31.45;;;19.13;;
30617;SDS011;17384;51.214;9.202;2023-08-17T08:24:41;27.30;;;16.02;;
30617;SDS011;17384;51.214;9.202;2023-08-17T08:27:06;33.67;;;17.52;;
30617;SDS011;17384;51.214;9.202;2023-08-17T08:29:32;27.25;;;17.35;;
30617;SDS011;17384;51.214;9.202;2023-08-17T08:31:58;26.60;;;17.05;;
30617;SDS011;17384;51.214;9.202;2023-08-17T08:34:24;29.92;;;17.50;;
30617;SDS011;17384;51.214;9.202;2023-08-17T08:36:52;27.45;;;16.77;;
30617;SDS011;17384;51.214;9.202;2023-08-17T08:39:17;25.67;;;15.90;;
30617;SDS011;17384;51.214;9.202;2023-08-17T08:41:43;24.42;;;15.05;;
30617;SDS011;17384;51.214;9.202;2023-08-17T08:44:09;28.67;;;16.92;;
30617;SDS011;17384;51.214;9.202;2023-08-17T08:46:34;23.25;;;14.20;;
30617;SDS011;17384;51.214;9.202;2023-08-17T08:49:04;21.98;;;14.30;;
30617;SDS011;17384;51.214;9.202;2023-08-17T08:51:35;24.08;;;14.25;;
30617;SDS011;17384;51.214;9.202;2023-08-17T08:54:05;27.77;;;16.70;;
30617;SDS011;17384;51.214;9.202;2023-08-17T08:56:35;23.83;;;15.20;;
30617;SDS011;17384;51.214;9.202;2023-08-17T08:59:04;20.52;;;14.02;;
30617;SDS011;17384;51.214;9.202;2023-08-17T09:01:30;21.98;;;15.77;;
30617;SDS011;17384;51.214;9.202;2023-08-17T09:04:00;24.95;;;15.85;;
30617;SDS011;17384;51.214;9.202;2023-08-17T09:06:28;23.83;;;15.70;;
30617;SDS011;17384;51.214;9.202;2023-08-17T09:08:56;21.98;;;15.07;;
30617;SDS011;17384;51.214;9.202;2023-08-17T09:11:23;27.00;;;17.13;;
30617;SDS011;17384;51.214;9.202;2023-08-17T09:13:50;22.02;;;14.45;;
30617;SDS011;17384;51.214;9.202;2023-08-17T09:16:17;26.27;;;17.17;;
30617;SDS011;17384;51.214;9.202;2023-08-17T09:18:43;21.63;;;14.63;;
30617;SDS011;17384;51.214;9.202;2023-08-17T09:21:09;23.70;;;13.55;;
30617;SDS011;17384;51.214;9.202;2023-08-17T09:23:50;20.80;;;13.10;;
30617;SDS011;17384;51.214;9.202;2023-08-17T09:26:17;25.27;;;14.77;;
30617;SDS011;17384;51.214;9.202;2023-08-17T09:28:45;20.63;;;13.80;;
30617;SDS011;17384;51.214;9.202;2023-08-17T09:31:11;26.00;;;15.32;;
30617;SDS011;17384;51.214;9.202;2023-08-17T09:33:36;17.20;;;11.20;;
30617;SDS011;17384;51.214;9.202;2023-08-17T09:36:02;24.70;;;14.23;;
30617;SDS011;17384;51.214;9.202;2023-08-17T09:38:28;20.50;;;13.13;;
30617;SDS011;17384;51.214;9.202;2023-08-17T09:40:54;26.58;;;15.38;;
30617;SDS011;17384;51.214;9.202;2023-08-17T09:43:19;23.75;;;14.43;;
30617;SDS011;17384;51.214;9.202;2023-08-17T09:45:48;21.25;;;13.80;;
30617;SDS011;17384;51.214;9.202;2023-08-17T09:48:18;22.25;;;13.60;;
30617;SDS011;17384;51.214;9.202;2023-08-17T09:50:44;16.50;;;13.15;;
30617;SDS011;17384;51.214;9.202;2023-08-17T09:53:14;29.05;;;15.82;;
30617;SDS011;17384;51.214;9.202;2023-08-17T09:55:41;30.05;;;16.67;;
30617;SDS011;17384;51.214;9.202;2023-08-17T09:58:08;27.33;;;17.25;;
30617;SDS011;17384;51.214;9.202;2023-08-17T10:00:34;23.88;;;15.50;;
30617;SDS011;17384;51.214;9.202;2023-08-17T10:03:01;22.88;;;15.52;;
30617;SDS011;17384;51.214;9.202;2023-08-17T10:05:28;20.08;;;13.73;;
30617;SDS011;17384;51.214;9.202;2023-08-17T10:07:57;23.73;;;13.90;;
30617;SDS011;17384;51.214;9.202;2023-08-17T10:10:25;20.45;;;12.75;;
30617;SDS011;17384;51.214;9.202;2023-08-17T10:12:59;18.85;;;12.88;;
30617;SDS011;17384;51.214;9.202;2023-08-17T10:15:36;23.70;;;14.43;;
30617;SDS011;17384;51.214;9.202;2023-08-17T10:20:42;18.55;;;11.85;;
30617;SDS011;17384;51.214;9.202;2023-08-17T10:23:22;19.35;;;11.95;;
30617;SDS011;17384;51.214;9.202;2023-08-17T10:25:49;25.63;;;13.25;;
30617;SDS011;17384;51.214;9.202;2023-08-17T10:28:15;13.20;;;10.38;;
30617;SDS011;17384;51.214;9.202;2023-08-17T10:33:08;18.85;;;10.38;;
30617;SDS011;17384;51.214;9.202;2023-08-17T10:35:35;15.05;;;10.23;;
30617;SDS011;17384;51.214;9.202;2023-08-17T10:38:02;11.95;;;9.23;;
30617;SDS011;17384;51.214;9.202;2023-08-17T10:40:34;12.55;;;9.45;;
30617;SDS011;17384;51.214;9.202;2023-08-17T10:43:01;12.63;;;9.63;;
30617;SDS011;17384;51.214;9.202;2023-08-17T10:45:30;12.60;;;9.02;;
30617;SDS011;17384;51.214;9.202;2023-08-17T10:48:00;9.30;;;7.35;;
30617;SDS011;17384;51.214;9.202;2023-08-17T10:50:59;13.77;;;8.63;;
30617;SDS011;17384;51.214;9.202;2023-08-17T10:53:33;9.77;;;7.57;;
30617;SDS011;17384;51.214;9.202;2023-08-17T10:56:00;14.13;;;8.73;;
30617;SDS011;17384;51.214;9.202;2023-08-17T10:58:26;11.55;;;8.20;;
30617;SDS011;17384;51.214;9.202;2023-08-17T11:00:57;9.38;;;7.03;;
30617;SDS011;17384;51.214;9.202;2023-08-17T11:03:23;10.82;;;7.75;;
30617;SDS011;17384;51.214;9.202;2023-08-17T11:05:52;8.40;;;5.57;;
30617;SDS011;17384;51.214;9.202;2023-08-17T11:08:38;6.50;;;5.43;;
30617;SDS011;17384;51.214;9.202;2023-08-17T11:11:06;8.30;;;6.25;;
30617;SDS011;17384;51.214;9.202;2023-08-17T11:13:32;6.68;;;5.05;;
30617;SDS011;17384;51.214;9.202;2023-08-17T11:16:00;14.20;;;6.63;;
30617;SDS011;17384;51.214;9.202;2023-08-17T11:18:26;7.50;;;5.82;;
30617;SDS011;17384;51.214;9.202;2023-08-17T11:20:52;7.70;;;5.68;;
30617;SDS011;17384;51.214;9.202;2023-08-17T11:23:19;7.40;;;5.95;;
30617;SDS011;17384;51.214;9.202;2023-08-17T11:25:45;6.38;;;5.25;;
30617;SDS011;17384;51.214;9.202;2023-08-17T11:28:11;5.40;;;4.90;;
30617;SDS011;17384;51.214;9.202;2023-08-17T11:30:39;6.65;;;4.78;;
30617;SDS011;17384;51.214;9.202;2023-08-17T11:33:07;9.48;;;4.50;;
30617;SDS011;17384;51.214;9.202;2023-08-17T11:35:33;8.85;;;5.30;;
30617;SDS011;17384;51.214;9.202;2023-08-17T11:37:59;5.85;;;4.70;;
30617;SDS011;17384;51.214;9.202;2023-08-17T11:40:26;5.38;;;4.47;;
30617;SDS011;17384;51.214;9.202;2023-08-17T11:42:52;4.38;;;3.97;;
30617;SDS011;17384;51.214;9.202;2023-08-17T11:45:18;5.18;;;3.80;;
30617;SDS011;17384;51.214;9.202;2023-08-17T11:47:46;4.32;;;3.58;;
30617;SDS011;17384;51.214;9.202;2023-08-17T11:50:12;4.07;;;3.67;;
30617;SDS011;17384;51.214;9.202;2023-08-17T11:52:38;4.00;;;3.67;;
30617;SDS011;17384;51.214;9.202;2023-08-17T11:55:04;6.90;;;4.35;;
30617;SDS011;17384;51.214;9.202;2023-08-17T11:57:31;4.75;;;4.13;;
30617;SDS011;17384;51.214;9.202;2023-08-17T11:59:58;4.95;;;4.20;;
30617;SDS011;17384;51.214;9.202;2023-08-17T12:02:28;6.05;;;3.97;;
30617;SDS011;17384;51.214;9.202;2023-08-17T12:04:54;4.20;;;3.80;;
30617;SDS011;17384;51.214;9.202;2023-08-17T12:07:21;4.75;;;3.92;;
30617;SDS011;17384;51.214;9.202;2023-08-17T12:09:48;7.70;;;3.80;;
30617;SDS011;17384;51.214;9.202;2023-08-17T12:12:17;4.55;;;3.80;;
30617;SDS011;17384;51.214;9.202;2023-08-17T12:14:48;4.70;;;4.20;;
30617;SDS011;17384;51.214;9.202;2023-08-17T12:17:14;5.53;;;3.90;;
30617;SDS011;17384;51.214;9.202;2023-08-17T12:19:43;4.32;;;3.90;;
30617;SDS011;17384;51.214;9.202;2023-08-17T12:22:10;5.22;;;3.50;;
30617;SDS011;17384;51.214;9.202;2023-08-17T12:24:37;4.40;;;3.60;;
30617;SDS011;17384;51.214;9.202;2023-08-17T12:27:04;3.42;;;2.83;;
30617;SDS011;17384;51.214;9.202;2023-08-17T12:29:30;5.70;;;3.55;;
30617;SDS011;17384;51.214;9.202;2023-08-17T12:32:01;3.83;;;3.20;;
30617;SDS011;17384;51.214;9.202;2023-08-17T12:34:27;7.32;;;3.30;;
30617;SDS011;17384;51.214;9.202;2023-08-17T12:36:52;3.75;;;3.35;;
30617;SDS011;17384;51.214;9.202;2023-08-17T12:39:18;3.92;;;3.40;;
30617;SDS011;17384;51.214;9.202;2023-08-17T12:41:44;4.15;;;3.75;;
30617;SDS011;17384;51.214;9.202;2023-08-17T12:44:09;5.03;;;3.58;;
30617;SDS011;17384;51.214;9.202;2023-08-17T12:46:38;4.35;;;3.08;;
30617;SDS011;17384;51.214;9.202;2023-08-17T12:49:04;4.45;;;2.75;;
30617;SDS011;17384;51.214;9.202;2023-08-17T12:51:30;3.10;;;2.80;;
30617;SDS011;17384;51.214;9.202;2023-08-17T12:53:55;4.00;;;3.58;;
30617;SDS011;17384;51.214;9.202;2023-08-17T12:56:21;2.97;;;2.75;;
30617;SDS011;17384;51.214;9.202;2023-08-17T12:58:46;3.08;;;2.50;;
30617;SDS011;17384;51.214;9.202;2023-08-17T13:01:12;4.90;;;3.05;;
30617;SDS011;17384;51.214;9.202;2023-08-17T13:03:39;6.22;;;2.80;;
30617;SDS011;17384;51.214;9.202;2023-08-17T13:06:04;3.30;;;2.35;;
30617;SDS011;17384;51.214;9.202;2023-08-17T13:08:30;3.10;;;2.80;;
30617;SDS011;17384;51.214;9.202;2023-08-17T13:10:55;2.63;;;2.42;;
30617;SDS011;17384;51.214;9.202;2023-08-17T13:13:21;3.00;;;2.70;;
30617;SDS011;17384;51.214;9.202;2023-08-17T13:15:46;4.15;;;2.53;;
30617;SDS011;17384;51.214;9.202;2023-08-17T13:18:12;4.03;;;3.00;;
30617;SDS011;17384;51.214;9.202;2023-08-17T13:20:37;6.22;;;3.10;;
30617;SDS011;17384;51.214;9.202;2023-08-17T13:23:05;2.70;;;2.50;;
30617;SDS011;17384;51.214;9.202;2023-08-17T13:25:31;5.65;;;2.63;;
30617;SDS011;17384;51.214;9.202;2023-08-17T13:27:56;3.67;;;3.03;;
30617;SDS011;17384;51.214;9.202;2023-08-17T13:30:22;3.20;;;2.90;;
30617;SDS011;17384;51.214;9.202;2023-08-17T13:32:47;3.30;;;2.60;;
30617;SDS011;17384;51.214;9.202;2023-08-17T13:35:13;3.45;;;3.15;;
30617;SDS011;17384;51.214;9.202;2023-08-17T13:37:38;3.47;;;2.97;;
30617;SDS011;17384;51.214;9.202;2023-08-17T13:40:06;4.07;;;2.85;;
30617;SDS011;17384;51.214;9.202;2023-08-17T13:42:32;3.35;;;2.70;;
30617;SDS011;17384;51.214;9.202;2023-08-17T13:44:58;3.10;;;2.80;;
30617;SDS011;17384;51.214;9.202;2023-08-17T13:47:23;2.15;;;1.95;;
30617;SDS011;17384;51.214;9.202;2023-08-17T13:49:49;2.85;;;2.65;;
30617;SDS011;17384;51.214;9.202;2023-08-17T13:52:14;3.58;;;2.25;;
30617;SDS011;17384;51.214;9.202;2023-08-17T13:54:40;2.92;;;2.55;;
30617;SDS011;17384;51.214;9.202;2023-08-17T13:57:05;2.85;;;2.55;;
30617;SDS011;17384;51.214;9.202;2023-08-17T13:59:31;9.32;;;3.00;;
30617;SDS011;17384;51.214;9.202;2023-08-17T14:01:56;3.33;;;2.75;;
30617;SDS011;17384;51.214;9.202;2023-08-17T14:04:22;3.88;;;2.60;;
30617;SDS011;17384;51.214;9.202;2023-08-17T14:06:47;3.50;;;2.30;;
30617;SDS011;17384;51.214;9.202;2023-08-17T14:09:13;2.80;;;2.60;;
30617;SDS011;17384;51.214;9.202;2023-08-17T14:11:39;3.08;;;2.78;;
30617;SDS011;17384;51.214;9.202;2023-08-17T14:14:04;3.75;;;2.80;;
30617;SDS011;17384;51.214;9.202;2023-08-17T14:16:30;4.53;;;2.55;;
30617;SDS011;17384;51.214;9.202;2023-08-17T14:18:56;3.10;;;2.40;;
30617;SDS011;17384;51.214;9.202;2023-08-17T14:21:21;2.50;;;2.30;;
30617;SDS011;17384;51.214;9.202;2023-08-17T14:23:47;2.83;;;2.50;;
30617;SDS011;17384;51.214;9.202;2023-08-17T14:26:12;2.75;;;2.38;;
30617;SDS011;17384;51.214;9.202;2023-08-17T14:28:38;2.53;;;2.33;;
30617;SDS011;17384;51.214;9.202;2023-08-17T14:31:03;4.88;;;2.83;;
30617;SDS011;17384;51.214;9.202;2023-08-17T14:33:29;3.20;;;2.75;;
30617;SDS011;17384;51.214;9.202;2023-08-17T14:35:54;3.22;;;2.92;;